• Join FlightAware (Why Join?)
  • Login
  • US Flag 
09:01AM EST


 

Airport Tracker/Info


-or-


 

Live Flight TrackerFlight Track Log ✈ CTL311 ✈ 30-Jul-2014 ✈ KBKL - KJXN

Flight Track Log - Related Links

Times and Time Zones

All times are in EDT time to prevent confusion due to time zone crossing. See the CTL311 flight status page for this flight to view local times or setup timezone preferences in your user account.

Time Position Orientation Groundspeed Altitude Reporting Facility
EDT Latitude Longitude Course Direction KTS MPH feet Rate Location/Type
12:17AM 41.5478 -81.7219 338° Northwest 150 173 1,900  Level Cleveland Center
12:18AM 41.5653 -81.7611 301° West 130 150 2,700 660 Climbing Cleveland Center
12:19AM 41.5708 -81.7767 296° West 139 160 2,900 240 Climbing Cleveland Center
12:19AM 41.5819 -81.8086 295° West 141 162 3,000  Climbing Cleveland Center
12:20AM 41.5872 -81.8256 293° West 138 159 2,900 -120 Descending Cleveland Center
12:20AM 41.5981 -81.8617 292° West 157 181 2,900  Level Cleveland Center
12:21AM 41.6044 -81.8792 296° West 148 170 2,900  Level Cleveland Center
12:21AM 41.6144 -81.9119 292° West 150 173 2,900 60 Level Cleveland Center
12:22AM 41.6197 -81.9306 291° West 148 170 3,000 60 Climbing Cleveland Center
12:22AM 41.6286 -81.9619 291° West 141 162 3,000 -120 Level Cleveland Center
12:23AM 41.6331 -81.9800 288° West 147 169 2,900  Descending Cleveland Center
12:23AM 41.6428 -82.0144 291° West 141 162 3,000 60 Climbing Cleveland Center
12:24AM 41.6461 -82.0297 286° West 145 167 3,000 -120 Level Cleveland Center
12:24AM 41.6569 -82.0644 293° West 144 166 2,900  Descending Cleveland Center
12:25AM 41.6611 -82.0806 289° West 144 166 3,000 60 Climbing Cleveland Center
12:25AM 41.6708 -82.1172 290° West 152 175 3,000  Level Cleveland Center
12:26AM 41.6744 -82.1331 287° West 145 167 3,000  Level Cleveland Center
12:26AM 41.6847 -82.1700 290° West 149 171 3,000 300 Level Cleveland Center
12:27AM 41.6883 -82.1864 286° West 145 167 3,300 720 Climbing Cleveland Center
12:27AM 41.6956 -82.2111 291° West 132 152 3,700 660 Climbing Cleveland Center
12:28AM 41.6994 -82.2289 286° West 137 158 4,000 300 Climbing Cleveland Center
12:28AM 41.7061 -82.2550 289° West 119 137 4,000  Level Cleveland Center
12:29AM 41.7139 -82.2864 288° West 140 161 4,000 -120 Level Cleveland Center
12:30AM 41.7267 -82.3411 287° West 152 175 3,900 -60 Descending Cleveland Center
12:31AM 41.7417 -82.3958 290° West 152 175 3,900  Level Cleveland Center
12:32AM 41.7539 -82.4353 293° West 151 174 4,000  Climbing Cleveland Center
12:33AM 41.7686 -82.4875 291° West 151 174 4,000  Level Cleveland Center
12:34AM 41.7819 -82.5400 289° West 151 174 4,000  Level Cleveland Center
12:35AM 41.7961 -82.5933 290° West 151 174 4,000 -180 Level Cleveland Center
12:35AM 41.7981 -82.6044 283° West 151 174 3,800 60 Descending Cleveland Center
12:36AM 41.8114 -82.6456 294° West 151 174 4,100 60 Climbing Cleveland Center
12:37AM 41.8267 -82.6992 291° West 151 174 4,000 -300 Descending Cleveland Center
12:37AM 41.8281 -82.7119 278° West 156 180 3,800 -120 Descending Cleveland Center
12:38AM 41.8411 -82.7542 293° West 153 176 3,900 60 Climbing Cleveland Center
12:39AM 41.8517 -82.8097 284° West 153 176 4,000  Climbing Cleveland Center
12:39AM 41.8531 -82.8272 276° West 154 177 3,900 -120 Descending Cleveland Center
12:40AM 41.8639 -82.8819 285° West 153 176 3,900  Level Cleveland Center
12:41AM 41.8786 -82.9342 291° West 159 183 3,900  Level Cleveland Center
12:42AM 41.8908 -82.9744 292° West 154 177 4,000  Climbing Cleveland Center
12:42AM 41.8933 -82.9894 283° West 154 177 3,900  Descending Cleveland Center
12:43AM 41.9061 -83.0283 294° West 154 177 4,000  Climbing Cleveland Center
12:43AM 41.9103 -83.0450 289° West 153 176 3,900  Descending Cleveland Center
12:44AM 41.9211 -83.0819 292° West 154 177 4,000  Climbing Cleveland Center
12:44AM 41.9250 -83.0975 289° West 152 175 3,900  Descending Cleveland Center
12:45AM 41.9364 -83.1347 292° West 154 177 4,000  Climbing Cleveland Center
12:45AM 41.9419 -83.1531 292° West 153 176 3,900  Descending Cleveland Center
12:46AM 41.9522 -83.1875 292° West 154 177 4,000  Climbing Cleveland Center
12:46AM 41.9567 -83.2058 288° West 151 174 3,900  Descending Cleveland Center
12:47AM 41.9658 -83.2406 290° West 154 177 4,000  Climbing Cleveland Center
12:47AM 41.9694 -83.2581 286° West 151 174 3,900 -120 Descending Cleveland Center
12:48AM 41.9861 -83.3136 292° West 153 176 3,900  Level Cleveland Center
12:49AM 41.9958 -83.3475 291° West 154 177 4,000  Climbing Cleveland Center
12:49AM 42.0008 -83.3664 290° West 150 173 3,900  Descending Cleveland Center
12:50AM 42.0111 -83.4008 292° West 153 176 4,000  Climbing Cleveland Center
12:50AM 42.0133 -83.4186 280° West 151 174 3,900  Descending Cleveland Center
12:51AM 42.0242 -83.4550 292° West 153 176 4,000  Climbing Cleveland Center
12:51AM 42.0278 -83.4742 284° West 152 175 3,900  Descending Cleveland Center
12:52AM 42.0383 -83.5092 292° West 153 176 4,000  Climbing Cleveland Center
12:52AM 42.0422 -83.5297 284° West 155 178 3,900  Descending Cleveland Center
12:53AM 42.0519 -83.5633 291° West 153 176 4,000 60 Climbing Cleveland Center
12:53AM 42.0569 -83.5822 290° West 154 177 4,000  Level Cleveland Center
12:54AM 42.0661 -83.6169 290° West 153 176 4,000 -120 Level Cleveland Center
12:54AM 42.0714 -83.6378 289° West 153 176 3,900  Descending Cleveland Center
12:55AM 42.0814 -83.6714 292° West 153 176 4,000  Climbing Cleveland Center
12:55AM 42.0858 -83.6933 285° West 154 177 3,900  Descending Cleveland Center
12:56AM 42.0933 -83.7269 287° West 153 176 4,000  Climbing Cleveland Center
12:56AM 42.0981 -83.7486 286° West 155 178 3,900  Descending Cleveland Center
12:57AM 42.1058 -83.7825 287° West 153 176 4,000  Climbing Cleveland Center
12:57AM 42.1103 -83.8042 285° West 154 177 3,900  Descending Cleveland Center
12:58AM 42.1175 -83.8364 287° West 153 176 4,000  Climbing Cleveland Center
12:58AM 42.1206 -83.8592 280° West 152 175 3,900  Descending Cleveland Center
12:59AM 42.1297 -83.8928 290° West 153 176 4,000 60 Climbing Cleveland Center
12:59AM 42.1347 -83.9147 287° West 150 173 4,000  Level Cleveland Center
01:00AM 42.1428 -83.9456 289° West 153 176 4,000 -60 Level Cleveland Center
01:01AM 42.1561 -83.9986 289° West 153 176 3,900 -60 Descending Cleveland Center
01:02AM 42.1692 -84.0517 288° West 153 176 3,900  Level Cleveland Center
01:03AM 42.1819 -84.1044 288° West 151 174 4,000  Climbing Cleveland Center
01:04AM 42.1933 -84.1581 286° West 151 174 3,900 -120 Descending Cleveland Center